Time;durP1;ratioP1;P1;durP2;ratioP2;P2;SDS_P1;SDS_P2;PMS_P1;PMS_P2;Temp;Humidity;BMP_temperature;BMP_pressure;BME280_temperature;BME280_humidity;BME280_pressure;Samples;Min_cycle;Max_cycle;Signal;HPM_P1;HPM_P2
2021/12/13 00:00:00;;;;;;;44.55;29.52;;;;;;;3.39;90.83;100977.78;2823833;84;21028;-67
2021/12/13 00:04:10;;;;;;;38.88;24.70;;;;;;;3.40;91.01;100968.98;2853940;83;21023;-67
2021/12/13 00:08:19;;;;;;;46.60;25.30;;;;;;;3.48;90.72;100975.23;2829561;84;21015;-67
2021/12/13 00:12:32;;;;;;;35.35;23.85;;;;;;;3.54;91.12;100966.25;2853889;83;21086;-67
2021/12/13 00:16:38;;;;;;;29.02;23.02;;;;;;;3.61;91.86;100967.69;2829261;84;21296;-68
2021/12/13 00:20:45;;;;;;;35.23;23.80;;;;;;;3.71;91.76;100966.84;2829116;84;21012;-68
2021/12/13 00:24:50;;;;;;;39.65;23.90;;;;;;;3.75;92.19;100961.88;2829209;84;21016;-67
2021/12/13 00:28:52;;;;;;;38.60;24.25;;;;;;;3.84;91.58;100969.84;2853454;83;21019;-67
2021/12/13 00:33:48;;;;;;;33.15;21.30;;;;;;;3.84;92.07;100957.52;2829304;84;20945;-68
2021/12/13 00:37:57;;;;;;;29.95;20.43;;;;;;;3.88;91.84;100955.61;2853856;83;20940;-68
2021/12/13 00:42:02;;;;;;;33.85;22.02;;;;;;;3.89;92.21;100951.19;2829218;84;21028;-68
2021/12/13 00:46:09;;;;;;;26.00;18.63;;;;;;;3.85;92.49;100943.43;2854209;83;21049;-68
2021/12/13 00:50:45;;;;;;;31.15;19.85;;;;;;;3.91;92.19;100948.03;2835214;84;21055;-69
2021/12/13 00:54:48;;;;;;;31.75;18.07;;;;;;;3.90;91.90;100947.64;2878845;82;21026;-68
2021/12/13 00:58:50;;;;;;;30.62;20.08;;;;;;;3.94;91.67;100954.50;2879626;82;20998;-68
2021/12/13 01:03:03;;;;;;;27.80;19.82;;;;;;;3.97;91.60;100960.47;2879570;81;21606;-68
2021/12/13 01:07:49;;;;;;;32.33;18.23;;;;;;;4.04;91.45;100967.64;2879606;82;21022;-68
2021/12/13 01:11:59;;;;;;;37.35;22.27;;;;;;;4.07;91.24;100971.45;2879261;81;21025;-68
2021/12/13 01:16:48;;;;;;;28.20;19.95;;;;;;;4.07;91.38;100978.52;2836847;83;20976;-68
2021/12/13 01:25:41;;;;;;;20.12;16.15;;;;;;;4.12;91.25;100979.16;2879117;82;21018;-68
2021/12/13 01:29:45;;;;;;;24.55;16.95;;;;;;;4.09;91.50;100976.19;2879587;82;21017;-68
2021/12/13 01:33:50;;;;;;;24.43;19.20;;;;;;;4.09;91.65;100976.19;2878957;82;21010;-68
2021/12/13 01:37:54;;;;;;;30.73;19.97;;;;;;;4.14;91.29;100978.19;2879815;82;21463;-68
2021/12/13 01:42:01;;;;;;;30.15;18.12;;;;;;;4.19;91.24;100978.44;2837709;84;21067;-68
2021/12/13 01:46:03;;;;;;;27.80;18.37;;;;;;;4.23;90.74;100980.00;2840134;84;21007;-68
2021/12/13 01:50:19;;;;;;;27.15;16.30;;;;;;;4.18;90.80;100978.05;2841722;82;21051;-68
2021/12/13 01:54:22;;;;;;;30.15;18.48;;;;;;;4.20;90.72;100975.72;2841711;84;20984;-68
2021/12/13 02:02:50;;;;;;;24.15;16.30;;;;;;;4.21;90.61;100981.38;2880569;82;21065;-68
2021/12/13 02:06:56;;;;;;;27.35;16.12;;;;;;;4.27;90.48;100992.98;2879831;82;20991;-69
2021/12/13 02:10:58;;;;;;;22.77;17.20;;;;;;;4.37;90.20;100989.47;2879824;82;21690;-68
2021/12/13 02:19:39;;;;;;;24.55;16.27;;;;;;;4.51;89.68;100986.66;2837802;84;21035;-69
2021/12/13 02:23:46;;;;;;;22.22;16.48;;;;;;;4.50;89.44;100983.63;2837098;84;21004;-68
2021/12/13 02:27:59;;;;;;;22.58;14.45;;;;;;;4.50;89.35;100984.50;2837134;84;21003;-68
2021/12/13 02:32:03;;;;;;;21.35;14.07;;;;;;;4.51;89.26;100987.98;2837230;84;21003;-68
2021/12/13 02:36:13;;;;;;;20.90;14.93;;;;;;;4.47;89.18;100982.46;2837457;84;20936;-68
2021/12/13 02:40:19;;;;;;;28.00;15.70;;;;;;;4.50;89.26;100986.27;2836686;84;21031;-68
2021/12/13 02:44:28;;;;;;;33.50;20.65;;;;;;;4.63;89.43;100983.95;2879507;82;21410;-68
2021/12/13 02:48:41;;;;;;;25.23;19.35;;;;;;;4.81;89.47;100991.47;2873403;82;21062;-68
2021/12/13 02:52:44;;;;;;;21.85;17.12;;;;;;;4.93;88.67;100995.30;2828200;84;21655;-68
2021/12/13 02:57:11;;;;;;;22.60;15.53;;;;;;;5.02;87.92;101000.61;2853500;83;21035;-68
2021/12/13 03:01:19;;;;;;;25.43;18.75;;;;;;;5.07;87.70;100998.61;2829418;84;21344;-69
2021/12/13 03:05:29;;;;;;;33.18;17.27;;;;;;;5.11;86.71;101006.31;2853622;83;21377;-69
2021/12/13 03:09:34;;;;;;;21.02;14.70;;;;;;;4.94;86.18;101004.48;2828562;84;21055;-68
2021/12/13 03:13:37;;;;;;;19.75;14.25;;;;;;;4.93;87.15;101008.04;2853496;83;21027;-68
2021/12/13 03:17:59;;;;;;;19.75;16.30;;;;;;;4.93;86.57;101010.67;2829344;84;21031;-68
2021/12/13 03:22:23;;;;;;;26.50;16.77;;;;;;;4.84;86.39;101012.41;2827608;84;21020;-68
2021/12/13 03:26:55;;;;;;;25.90;18.45;;;;;;;4.86;86.99;101012.74;2853785;82;21018;-68
2021/12/13 03:31:04;;;;;;;21.12;15.78;;;;;;;4.95;87.55;101017.18;2828995;84;21043;-68
2021/12/13 03:35:23;;;;;;;21.17;16.65;;;;;;;5.09;87.17;101022.67;2853965;83;21081;-68
2021/12/13 03:39:36;;;;;;;22.22;16.10;;;;;;;5.15;86.56;101023.69;2828948;84;21024;-68
2021/12/13 03:44:07;;;;;;;24.50;16.10;;;;;;;5.11;86.09;101018.17;2853755;83;21038;-68
2021/12/13 03:48:13;;;;;;;25.60;16.65;;;;;;;5.13;86.26;101013.68;2759469;85;21090;-67
2021/12/13 03:52:19;;;;;;;24.15;16.82;;;;;;;5.13;85.94;101011.52;2824150;84;20976;-68
2021/12/13 03:56:28;;;;;;;24.90;16.35;;;;;;;5.02;86.40;101017.30;2837458;84;21053;-68
2021/12/13 04:00:34;;;;;;;18.82;14.18;;;;;;;4.93;87.10;101013.77;2837144;84;21557;-68
2021/12/13 04:04:44;;;;;;;18.75;14.10;;;;;;;4.93;87.23;101023.86;2837092;84;20992;-68
2021/12/13 04:08:54;;;;;;;19.82;14.23;;;;;;;4.90;87.69;101016.06;2837363;84;20960;-68
2021/12/13 04:13:00;;;;;;;23.02;13.70;;;;;;;4.92;88.12;101017.33;2836864;83;21016;-68
2021/12/13 04:17:20;;;;;;;20.90;15.00;;;;;;;4.99;87.89;101022.70;2837329;84;20956;-68
2021/12/13 04:21:15;;;;;;;21.77;16.25;;;;;;;4.97;87.61;101021.91;2835490;84;21007;-68
2021/12/13 04:25:28;;;;;;;16.77;13.75;;;;;;;5.01;87.36;101023.48;2837741;84;21015;-69
2021/12/13 04:29:35;;;;;;;21.05;16.02;;;;;;;4.93;87.10;101022.55;2836481;84;21602;-67
2021/12/13 04:34:00;;;;;;;21.80;15.78;;;;;;;4.81;87.81;101025.73;2836134;84;21560;-71
2021/12/13 04:38:06;;;;;;;26.17;16.80;;;;;;;4.77;88.41;101026.81;2836975;84;20980;-69
2021/12/13 04:42:12;;;;;;;21.75;14.23;;;;;;;4.68;89.67;101022.33;2836673;84;20936;-71
2021/12/13 04:46:18;;;;;;;25.32;15.05;;;;;;;4.57;90.72;101032.52;2835076;84;21492;-69
2021/12/13 04:50:53;;;;;;;24.05;15.50;;;;;;;4.42;91.79;101036.22;2836344;84;21070;-71
2021/12/13 04:54:56;;;;;;;22.15;15.08;;;;;;;4.41;92.10;101038.91;2878604;82;21022;-71
2021/12/13 04:59:02;;;;;;;19.32;14.85;;;;;;;4.25;92.68;101041.36;2878945;82;20927;-72
2021/12/13 05:03:07;;;;;;;19.02;14.70;;;;;;;4.20;93.46;101044.66;2837124;84;21035;-72
2021/12/13 05:07:09;;;;;;;18.60;13.90;;;;;;;4.11;93.30;101040.17;2879237;81;21010;-72
2021/12/13 05:11:13;;;;;;;22.73;16.20;;;;;;;3.95;95.12;101050.50;2879333;82;20998;-73
2021/12/13 05:15:18;;;;;;;22.65;16.50;;;;;;;3.91;96.39;101047.61;2878880;82;21038;-72
2021/12/13 05:19:37;;;;;;;32.90;16.97;;;;;;;3.86;97.14;101047.80;2851179;82;20975;-72
2021/12/13 05:23:56;;;;;;;28.67;15.83;;;;;;;3.80;97.05;101061.22;2837219;84;21031;-69
2021/12/13 05:28:14;;;;;;;24.02;17.05;;;;;;;3.72;97.21;101060.66;2837557;84;20992;-70
2021/12/13 05:32:21;;;;;;;25.45;16.87;;;;;;;3.65;96.64;101059.20;2777294;82;21096;-71
2021/12/13 05:36:28;;;;;;;19.90;14.20;;;;;;;3.69;97.08;101056.84;2841893;84;21044;-71
2021/12/13 05:40:42;;;;;;;19.52;14.90;;;;;;;3.70;97.62;101058.55;2879171;82;21022;-74
2021/12/13 05:44:46;;;;;;;16.37;13.38;;;;;;;3.71;98.39;101061.58;2879465;82;21042;-69
2021/12/13 05:48:53;;;;;;;20.68;13.38;;;;;;;3.71;98.44;101069.47;2837207;84;21028;-70
2021/12/13 05:53:03;;;;;;;20.82;12.43;;;;;;;3.71;98.32;101072.10;2829707;84;21047;-72
2021/12/13 05:57:16;;;;;;;21.65;12.10;;;;;;;3.72;98.05;101069.86;2830729;84;21035;-70
2021/12/13 06:01:32;;;;;;;20.15;13.00;;;;;;;3.73;97.47;101068.95;2829686;84;21024;-70
2021/12/13 06:05:41;;;;;;;16.40;12.68;;;;;;;3.73;97.49;101077.31;2806529;84;20996;-70
2021/12/13 06:10:00;;;;;;;18.37;11.85;;;;;;;3.81;97.01;101073.45;2830346;84;21031;-71
2021/12/13 06:14:16;;;;;;;18.65;12.13;;;;;;;3.85;96.83;101077.67;2830620;84;21004;-71
2021/12/13 06:18:22;;;;;;;18.03;12.70;;;;;;;3.82;97.07;101084.82;2830299;84;21000;-71
2021/12/13 06:22:28;;;;;;;13.28;11.70;;;;;;;3.84;97.01;101078.59;2864978;81;21008;-69
2021/12/13 06:26:32;;;;;;;15.13;13.40;;;;;;;3.91;96.81;101082.27;2876167;83;20990;-70
2021/12/13 06:30:38;;;;;;;18.25;13.45;;;;;;;3.96;95.97;101085.59;2875591;82;20987;-71
2021/12/13 06:34:40;;;;;;;19.25;14.28;;;;;;;3.96;95.47;101085.59;2875840;82;21022;-69
2021/12/13 06:38:52;;;;;;;27.77;16.42;;;;;;;3.98;96.50;101092.49;2875844;82;21018;-69
2021/12/13 06:42:58;;;;;;;22.35;15.48;;;;;;;4.02;96.52;101094.99;2899914;81;20994;-70
2021/12/13 06:47:06;;;;;;;22.82;17.57;;;;;;;4.08;96.49;101099.55;2931269;81;20998;-70
2021/12/13 06:51:12;;;;;;;29.18;18.92;;;;;;;4.16;96.21;101101.02;2938008;81;21066;-71
2021/12/13 06:55:19;;;;;;;35.83;21.33;;;;;;;4.20;96.28;101108.70;2942739;81;21077;-70
2021/12/13 06:59:21;;;;;;;63.28;32.85;;;;;;;4.22;96.62;101108.18;2943293;81;20970;-70
2021/12/13 07:03:32;;;;;;;20.52;15.40;;;;;;;4.27;96.22;101120.72;2943304;81;20958;-70
2021/12/13 07:08:00;;;;;;;31.00;18.65;;;;;;;4.34;93.95;101120.00;2942799;81;21029;-69
2021/12/13 07:12:07;;;;;;;46.65;25.62;;;;;;;4.31;94.96;101126.69;2942374;81;21032;-70
2021/12/13 07:16:17;;;;;;;49.60;28.27;;;;;;;4.29;95.06;101126.78;2940968;81;21593;-71
2021/12/13 07:20:22;;;;;;;53.00;27.90;;;;;;;4.29;95.45;101133.36;2942889;81;21056;-70
2021/12/13 07:24:43;;;;;;;31.12;19.77;;;;;;;4.36;96.30;101136.59;2942782;81;20986;-71
2021/12/13 07:28:50;;;;;;;26.97;16.90;;;;;;;4.39;96.66;101137.78;2942768;81;21026;-72
2021/12/13 07:33:00;;;;;;;20.62;16.00;;;;;;;4.48;96.29;101151.47;2943007;81;20954;-71
2021/12/13 07:37:04;;;;;;;23.83;14.40;;;;;;;4.47;96.67;101149.31;2943269;81;20986;-71
2021/12/13 07:41:07;;;;;;;21.27;15.08;;;;;;;4.51;96.80;101156.61;2914373;81;21039;-71
2021/12/13 07:45:23;;;;;;;41.53;23.80;;;;;;;4.49;97.45;101165.91;2887381;82;20979;-70
2021/12/13 07:49:30;;;;;;;39.37;24.87;;;;;;;4.51;97.57;101172.41;2836708;83;20996;-72
2021/12/13 07:54:00;;;;;;;43.42;27.70;;;;;;;4.57;97.06;101172.18;2877376;82;20983;-71
2021/12/13 07:58:05;;;;;;;33.80;19.98;;;;;;;4.66;96.96;101177.52;2892278;82;21027;-72
2021/12/13 08:02:27;;;;;;;28.10;17.20;;;;;;;4.67;97.22;101172.16;2878512;82;21341;-71
2021/12/13 08:06:37;;;;;;;19.57;15.88;;;;;;;4.74;96.74;101171.92;2893033;81;21011;-71
2021/12/13 08:10:42;;;;;;;25.25;19.00;;;;;;;4.74;96.38;101181.14;2878372;82;20978;-70
2021/12/13 08:14:48;;;;;;;23.27;17.55;;;;;;;4.73;96.01;101186.02;2892941;82;20995;-72
2021/12/13 08:18:50;;;;;;;21.33;17.60;;;;;;;4.69;96.06;101183.49;2841211;84;20980;-71
2021/12/13 08:22:54;;;;;;;20.12;15.65;;;;;;;4.65;95.96;101191.62;2855965;82;21018;-71
2021/12/13 08:27:04;;;;;;;19.55;15.08;;;;;;;4.42;96.09;101183.75;2893289;82;21524;-69
2021/12/13 08:31:10;;;;;;;19.25;14.58;;;;;;;4.27;96.91;101188.33;2877845;82;20986;-71
2021/12/13 08:35:12;;;;;;;17.73;12.78;;;;;;;4.14;97.18;101188.85;2893400;82;21018;-71
2021/12/13 08:39:21;;;;;;;20.80;13.83;;;;;;;4.06;98.04;101192.70;2878454;82;21009;-70
2021/12/13 08:43:50;;;;;;;22.48;14.20;;;;;;;3.94;99.38;101201.48;2893139;82;21019;-72
2021/12/13 08:48:00;;;;;;;20.60;14.73;;;;;;;3.88;99.46;101202.17;2879131;82;21010;-71
2021/12/13 08:52:15;;;;;;;20.48;13.83;;;;;;;3.87;100.00;101209.23;2892667;82;21031;-71
2021/12/13 08:56:23;;;;;;;20.75;13.60;;;;;;;3.80;99.77;101220.45;2879691;82;21038;-73
2021/12/13 09:00:48;;;;;;;22.90;15.13;;;;;;;3.83;100.00;101217.69;2893161;82;20976;-73
2021/12/13 09:05:01;;;;;;;21.10;13.98;;;;;;;3.83;99.89;101216.37;2878935;82;21026;-73
2021/12/13 09:09:14;;;;;;;17.87;15.28;;;;;;;3.83;100.00;101222.95;2875766;82;20983;-72
2021/12/13 09:13:21;;;;;;;26.37;14.85;;;;;;;3.86;100.00;101220.20;2890961;82;20944;-70
2021/12/13 09:17:41;;;;;;;23.02;16.52;;;;;;;3.89;100.00;101220.55;2890492;82;20936;-72
2021/12/13 09:21:50;;;;;;;25.10;16.65;;;;;;;4.09;100.00;101222.38;2878959;82;20995;-68
2021/12/13 09:26:12;;;;;;;19.25;15.83;;;;;;;4.23;99.41;101220.98;2893497;82;21028;-69
2021/12/13 09:30:27;;;;;;;26.02;15.25;;;;;;;4.33;98.72;101213.56;2878730;82;20978;-66
2021/12/13 09:34:29;;;;;;;20.72;13.62;;;;;;;4.34;99.36;101210.89;2892884;82;21031;-71
2021/12/13 09:38:48;;;;;;;23.50;16.35;;;;;;;4.35;99.90;101209.97;2878775;82;21542;-72
2021/12/13 09:42:54;;;;;;;22.85;16.25;;;;;;;4.45;99.91;101217.47;2892502;82;20980;-71
2021/12/13 09:47:07;;;;;;;23.12;16.15;;;;;;;4.59;99.47;101220.41;2878444;82;20982;-71
2021/12/13 09:51:20;;;;;;;21.12;15.58;;;;;;;4.71;98.53;101221.66;2892986;82;21035;-70
2021/12/13 09:55:36;;;;;;;30.17;21.07;;;;;;;4.79;98.70;101218.70;2843898;83;21079;-70
2021/12/13 09:59:49;;;;;;;23.12;18.15;;;;;;;4.94;98.38;101218.05;2878838;82;21005;-73
2021/12/13 10:04:24;;;;;;;27.95;19.27;;;;;;;5.03;97.39;101208.02;2892936;82;21095;-71
2021/12/13 10:08:31;;;;;;;23.67;15.45;;;;;;;5.15;96.44;101212.28;2876711;82;21448;-68
2021/12/13 10:12:44;;;;;;;22.50;17.30;;;;;;;5.24;95.84;101216.29;2867145;81;21000;-69
2021/12/13 10:16:49;;;;;;;34.20;21.73;;;;;;;5.38;96.13;101220.94;2892308;82;21082;-71
2021/12/13 10:20:56;;;;;;;28.97;17.90;;;;;;;5.41;95.70;101214.23;2879252;82;21034;-75
2021/12/13 10:25:26;;;;;;;22.50;15.15;;;;;;;5.43;95.77;101222.06;2892944;82;20988;-72
2021/12/13 10:29:28;;;;;;;27.98;17.85;;;;;;;5.45;95.48;101222.84;2841576;84;21079;-70
2021/12/13 10:33:31;;;;;;;41.53;26.07;;;;;;;5.40;95.75;101226.16;2878900;82;21017;-73
2021/12/13 10:37:38;;;;;;;26.52;17.02;;;;;;;5.42;95.76;101228.27;2893140;82;20996;-72
2021/12/13 10:41:44;;;;;;;24.05;15.88;;;;;;;5.52;94.21;101222.98;2841211;83;21023;-73
2021/12/13 10:45:49;;;;;;;;;;;;;;;5.62;93.19;101221.22;2881124;82;21037;-72
2021/12/13 10:49:54;;;;;;;27.50;14.23;;;;;;;5.76;92.81;101224.09;2892722;82;20107;-70
2021/12/13 10:53:59;;;;;;;24.80;15.85;;;;;;;5.77;92.06;101221.84;2881024;82;21028;-71
2021/12/13 10:58:03;;;;;;;19.80;16.50;;;;;;;5.66;92.04;101218.83;2871932;83;20967;-70
2021/12/13 11:02:10;;;;;;;32.20;15.60;;;;;;;5.73;92.41;101222.91;2880664;82;21076;-71
2021/12/13 11:06:14;;;;;;;24.15;17.27;;;;;;;5.69;92.52;101216.91;2871426;83;21074;-67
2021/12/13 11:10:24;;;;;;;21.57;14.95;;;;;;;5.77;92.85;101215.23;2871764;83;21008;-70
2021/12/13 11:14:27;;;;;;;24.90;17.75;;;;;;;5.92;92.53;101214.97;2879867;82;21054;-68
2021/12/13 11:18:29;;;;;;;25.48;16.95;;;;;;;5.99;91.77;101211.58;2871129;83;21030;-72
2021/12/13 11:22:34;;;;;;;24.85;18.32;;;;;;;5.88;91.59;101216.50;2871533;83;20990;-72
2021/12/13 11:26:40;;;;;;;26.33;16.80;;;;;;;5.95;91.95;101224.06;2881457;82;21019;-70
2021/12/13 11:30:45;;;;;;;25.60;19.17;;;;;;;6.10;92.09;101225.17;2871841;83;20974;-72
2021/12/13 11:34:55;;;;;;;27.80;19.10;;;;;;;6.29;91.58;101227.77;2872193;83;20943;-69
2021/12/13 11:39:47;;;;;;;27.00;19.67;;;;;;;6.47;91.66;101224.28;2871624;82;21038;-70
2021/12/13 11:44:03;;;;;;;32.17;20.50;;;;;;;6.52;90.51;101223.61;2881421;82;20988;-70
2021/12/13 11:48:44;;;;;;;28.60;20.60;;;;;;;6.51;90.44;101224.55;2880395;82;29867;-70
2021/12/13 11:53:32;;;;;;;33.35;23.15;;;;;;;6.53;90.60;101223.99;2858184;82;21056;-71
2021/12/13 11:58:05;;;;;;;39.95;26.95;;;;;;;6.49;91.03;101222.44;2875047;83;21026;-71
2021/12/13 12:02:35;;;;;;;40.63;29.27;;;;;;;6.58;91.32;101227.25;2886843;82;21513;-73
2021/12/13 12:07:15;;;;;;;28.50;20.10;;;;;;;6.64;91.06;101224.30;2886977;82;20976;-69
2021/12/13 12:12:08;;;;;;;40.20;27.90;;;;;;;6.60;90.11;101228.03;2887094;82;21023;-72
2021/12/13 12:16:10;;;;;;;36.28;24.43;;;;;;;6.54;90.43;101221.25;2875887;83;21027;-71
2021/12/13 12:20:16;;;;;;;32.53;24.37;;;;;;;6.60;90.83;101220.09;2886948;82;21015;-70
2021/12/13 12:24:28;;;;;;;25.00;16.85;;;;;;;6.64;91.33;101212.39;2886602;82;21036;-73
2021/12/13 12:28:33;;;;;;;23.50;16.45;;;;;;;6.70;91.15;101217.39;2886865;82;21027;-70
2021/12/13 12:32:42;;;;;;;30.40;19.82;;;;;;;6.80;90.40;101219.55;2886761;82;20969;-71
2021/12/13 12:37:01;;;;;;;30.77;18.73;;;;;;;6.89;90.09;101217.78;2886513;82;21027;-70
2021/12/13 12:41:33;;;;;;;41.28;26.52;;;;;;;6.89;89.57;101224.39;2876134;83;21022;-71
2021/12/13 12:45:55;;;;;;;32.50;19.82;;;;;;;6.85;89.62;101225.00;2886483;82;21027;-72
2021/12/13 12:50:30;;;;;;;26.87;18.98;;;;;;;6.86;89.66;101220.55;2886370;82;20992;-72
2021/12/13 12:54:35;;;;;;;29.98;18.42;;;;;;;6.88;89.63;101214.75;2862402;82;20996;-71
2021/12/13 12:58:47;;;;;;;26.45;18.98;;;;;;;6.86;89.39;101217.91;2886731;82;20977;-68
2021/12/13 13:02:50;;;;;;;26.17;17.65;;;;;;;6.77;89.31;101214.43;2886539;82;21027;-72
2021/12/13 13:07:16;;;;;;;19.07;14.98;;;;;;;6.82;89.81;101224.30;2886910;82;21016;-70
2021/12/13 13:11:27;;;;;;;22.23;15.03;;;;;;;6.88;89.63;101225.78;2887096;82;20979;-71
2021/12/13 13:15:36;;;;;;;22.10;16.12;;;;;;;6.86;89.29;101225.84;2886989;82;21476;-73
2021/12/13 13:19:43;;;;;;;20.20;15.85;;;;;;;6.79;89.27;101221.81;2883603;82;20994;-73
2021/12/13 13:23:50;;;;;;;27.00;19.52;;;;;;;6.81;89.99;101226.10;2887092;82;21064;-71
2021/12/13 13:27:53;;;;;;;32.45;21.60;;;;;;;6.94;90.07;101223.68;2887172;82;20988;-70
2021/12/13 13:31:59;;;;;;;33.45;20.48;;;;;;;7.04;89.65;101225.38;2886906;82;21023;-71
2021/12/13 13:36:02;;;;;;;26.97;16.97;;;;;;;7.12;89.48;101228.47;2887386;82;20996;-72
2021/12/13 13:40:12;;;;;;;22.05;15.45;;;;;;;7.16;88.93;101230.50;2887024;82;21035;-73
2021/12/13 13:44:19;;;;;;;32.42;26.37;;;;;;;7.08;88.49;101235.34;2886736;82;20996;-73
2021/12/13 13:48:29;;;;;;;39.70;24.55;;;;;;;6.94;88.74;101237.36;2886575;82;21011;-73
2021/12/13 13:52:31;;;;;;;38.13;20.60;;;;;;;6.92;89.51;101240.09;2885246;82;21020;-73
2021/12/13 13:56:40;;;;;;;31.70;18.55;;;;;;;7.00;89.72;101244.52;2884787;82;21053;-72
2021/12/13 14:00:56;;;;;;;29.52;18.27;;;;;;;7.13;89.28;101246.05;2884185;82;21004;-70
2021/12/13 14:05:03;;;;;;;44.20;21.30;;;;;;;7.27;89.21;101249.33;2842415;83;21037;-72
2021/12/13 14:09:13;;;;;;;31.95;17.98;;;;;;;7.29;88.54;101250.09;2842734;84;21029;-72
2021/12/13 14:13:15;;;;;;;32.85;21.23;;;;;;;7.27;88.21;101259.91;2840689;84;20994;-71
2021/12/13 14:17:38;;;;;;;26.05;18.37;;;;;;;7.22;87.92;101258.44;2843063;84;21025;-73
2021/12/13 14:21:45;;;;;;;21.90;18.17;;;;;;;7.21;87.97;101258.05;2842768;83;21041;-69
2021/12/13 14:26:00;;;;;;;25.00;17.12;;;;;;;7.04;87.94;101270.81;2841667;84;20970;-69
2021/12/13 14:30:24;;;;;;;45.20;26.23;;;;;;;6.97;88.53;101275.55;2842587;84;21014;-69
2021/12/13 14:34:26;;;;;;;31.05;20.17;;;;;;;7.01;88.92;101277.13;2840982;84;21010;-69
2021/12/13 14:38:29;;;;;;;30.55;21.70;;;;;;;7.05;88.63;101276.48;2842266;84;21025;-70
2021/12/13 14:42:31;;;;;;;32.48;23.42;;;;;;;7.09;88.71;101274.94;2841236;84;21069;-69
2021/12/13 14:46:47;;;;;;;34.95;25.40;;;;;;;7.11;88.41;101282.33;2840882;84;21014;-68
2021/12/13 14:50:54;;;;;;;46.88;34.25;;;;;;;7.12;88.11;101288.48;2844608;82;21026;-70
2021/12/13 14:55:01;;;;;;;41.48;29.10;;;;;;;7.02;87.98;101289.42;2854917;82;21535;-69
2021/12/13 14:59:04;;;;;;;39.27;22.82;;;;;;;6.95;88.29;101291.97;2838580;82;21054;-69
2021/12/13 15:03:11;;;;;;;37.55;23.87;;;;;;;6.85;88.99;101298.19;2839288;82;21041;-69
2021/12/13 15:07:21;;;;;;;33.70;21.02;;;;;;;6.86;89.12;101303.42;2839153;84;21033;-69
2021/12/13 15:11:31;;;;;;;62.27;41.65;;;;;;;6.80;89.03;101313.44;2839490;84;21519;-70
2021/12/13 15:15:49;;;;;;;44.80;29.32;;;;;;;6.73;89.53;101313.36;2852545;82;21083;-69
2021/12/13 15:19:52;;;;;;;45.33;30.72;;;;;;;6.76;90.17;101311.88;2847287;82;21006;-70
2021/12/13 15:24:00;;;;;;;38.30;26.73;;;;;;;6.83;90.06;101321.22;2838917;84;21067;-68
2021/12/13 15:28:05;;;;;;;38.40;22.87;;;;;;;6.89;89.30;101316.09;2826117;83;20987;-68
2021/12/13 15:32:12;;;;;;;29.52;20.05;;;;;;;6.89;88.81;101319.61;2804730;84;21010;-69
2021/12/13 15:36:16;;;;;;;25.30;16.90;;;;;;;6.83;88.79;101320.77;2839705;84;21647;-69
2021/12/13 15:40:32;;;;;;;24.87;17.48;;;;;;;6.81;88.74;101319.98;2835168;84;21046;-68
2021/12/13 15:44:34;;;;;;;27.17;20.20;;;;;;;6.81;89.14;101327.05;2817691;84;21027;-69
2021/12/13 15:53:20;;;;;;;26.73;21.23;;;;;;;6.90;88.75;101333.22;2817015;84;21042;-71
2021/12/13 15:57:34;;;;;;;23.67;16.07;;;;;;;6.97;88.31;101337.27;2833936;84;21034;-71
2021/12/13 16:01:44;;;;;;;28.30;19.50;;;;;;;7.08;88.53;101338.05;2877557;81;21054;-68
2021/12/13 16:05:48;;;;;;;26.45;18.48;;;;;;;7.20;87.92;101336.57;2833023;84;20988;-68
2021/12/13 16:09:58;;;;;;;26.77;19.82;;;;;;;7.19;87.05;101342.80;2874801;83;20992;-69
2021/12/13 16:14:22;;;;;;;24.43;16.70;;;;;;;7.24;87.14;101336.80;2865328;83;21029;-69
2021/12/13 16:18:28;;;;;;;25.08;19.42;;;;;;;7.07;86.74;101331.50;2903208;81;21465;-69
2021/12/13 16:23:12;;;;;;;26.73;17.30;;;;;;;6.91;87.56;101324.36;2936085;81;20961;-69
2021/12/13 16:27:14;;;;;;;25.37;18.48;;;;;;;6.86;87.73;101327.67;2936795;81;21532;-69
2021/12/13 16:31:21;;;;;;;27.37;21.50;;;;;;;6.86;88.18;101329.86;2910310;81;21407;-69
2021/12/13 16:35:25;;;;;;;31.65;21.10;;;;;;;6.89;88.07;101329.32;2884222;82;21039;-69
2021/12/13 16:39:33;;;;;;;34.70;22.48;;;;;;;6.95;88.08;101322.39;2835434;82;21050;-69
2021/12/13 16:43:40;;;;;;;34.10;24.05;;;;;;;6.86;88.39;101329.86;2834184;83;21006;-69
2021/12/13 16:47:41;;;;;;;;;;;;;;;6.87;88.67;101329.38;2836174;84;21464;-69
2021/12/13 16:52:11;;;;;;;49.67;29.40;;;;;;;6.93;88.71;101333.06;2833790;84;20118;-69
2021/12/13 16:56:13;;;;;;;34.13;25.75;;;;;;;6.95;88.11;101340.91;2834200;83;21070;-69
2021/12/13 17:00:35;;;;;;;41.28;30.88;;;;;;;6.85;87.82;101335.22;2833623;84;21030;-68
2021/12/13 17:04:48;;;;;;;50.45;33.05;;;;;;;6.79;88.26;101340.38;2881145;82;20998;-68
2021/12/13 17:09:03;;;;;;;52.08;37.73;;;;;;;6.86;87.89;101343.09;2884517;82;21034;-69
2021/12/13 17:13:13;;;;;;;73.15;43.75;;;;;;;6.80;87.96;101347.82;2884478;81;20992;-69
2021/12/13 17:17:17;;;;;;;86.40;52.65;;;;;;;6.85;88.37;101354.60;2883324;82;21008;-69
2021/12/13 17:21:32;;;;;;;69.58;43.42;;;;;;;6.83;88.01;101359.56;2884654;82;21010;-70
2021/12/13 17:25:29;;;;;;;83.70;48.13;;;;;;;6.85;88.31;101361.66;2882996;82;21002;-69
2021/12/13 17:29:57;;;;;;;72.78;44.13;;;;;;;6.90;87.62;101358.35;2884785;82;21013;-69
2021/12/13 17:33:58;;;;;;;52.35;34.20;;;;;;;6.80;87.23;101355.30;2884656;82;21049;-69
2021/12/13 17:38:05;;;;;;;63.95;40.12;;;;;;;6.69;87.25;101353.19;2884544;82;20998;-69
2021/12/13 17:42:09;;;;;;;;;;;;;;;6.66;87.95;101355.95;2886983;82;21014;-69
2021/12/13 17:46:21;;;;;;;126.97;71.50;;;;;;;6.80;88.57;101351.79;2884674;82;20124;-69
2021/12/13 17:50:28;;;;;;;126.87;69.40;;;;;;;6.71;87.98;101342.52;2883886;82;21006;-70
2021/12/13 17:54:33;;;;;;;81.37;48.98;;;;;;;6.41;89.31;101328.54;2879529;82;21018;-70
2021/12/13 17:58:55;;;;;;;105.27;62.85;;;;;;;6.31;89.83;101329.44;2826290;84;21038;-70
2021/12/13 18:03:34;;;;;;;93.65;58.10;;;;;;;6.34;89.95;101339.86;2877071;82;21018;-69
2021/12/13 18:07:48;;;;;;;92.80;55.80;;;;;;;6.29;88.97;101335.27;2877743;82;21089;-70
2021/12/13 18:12:24;;;;;;;89.05;54.65;;;;;;;6.35;89.65;101347.30;2826898;84;20995;-70
2021/12/13 18:16:34;;;;;;;104.40;60.98;;;;;;;6.42;88.81;101343.47;2878234;82;21077;-70
2021/12/13 18:20:47;;;;;;;100.07;56.20;;;;;;;6.46;88.98;101350.77;2856111;82;21483;-69
2021/12/13 18:24:49;;;;;;;72.25;49.85;;;;;;;6.53;89.22;101353.05;2827923;82;20959;-69
2021/12/13 18:28:59;;;;;;;82.27;44.38;;;;;;;6.62;88.53;101356.20;2824028;84;21018;-69
2021/12/13 18:33:06;;;;;;;88.80;50.45;;;;;;;6.60;89.29;101352.29;2851644;82;21019;-70
2021/12/13 18:37:12;;;;;;;70.03;47.30;;;;;;;6.58;89.40;101356.80;2878068;82;21018;-70
2021/12/13 18:41:24;;;;;;;66.95;46.33;;;;;;;6.67;89.81;101360.30;2877659;82;21061;-70
2021/12/13 18:45:29;;;;;;;57.00;34.95;;;;;;;6.81;89.83;101357.47;2869699;83;20980;-69
2021/12/13 18:49:42;;;;;;;59.30;38.30;;;;;;;6.79;88.52;101356.23;2869689;83;21070;-69
2021/12/13 18:54:01;;;;;;;33.50;22.15;;;;;;;6.74;88.81;101365.31;2878906;82;21058;-69
2021/12/13 18:58:06;;;;;;;38.38;23.83;;;;;;;6.67;90.94;101360.30;2887034;82;20979;-70
2021/12/13 19:02:08;;;;;;;28.45;18.55;;;;;;;6.73;91.50;101358.32;2862297;82;21033;-69
2021/12/13 19:06:15;;;;;;;33.38;21.90;;;;;;;6.84;91.67;101354.67;2889382;82;21017;-68
2021/12/13 19:10:20;;;;;;;24.77;19.25;;;;;;;6.89;91.31;101354.00;2889347;82;21005;-69
2021/12/13 19:14:27;;;;;;;48.55;30.37;;;;;;;6.94;91.22;101355.94;2889905;82;21021;-69
2021/12/13 19:18:34;;;;;;;63.08;34.53;;;;;;;6.98;91.31;101358.81;2884534;82;21014;-69
2021/12/13 19:22:39;;;;;;;57.62;33.20;;;;;;;7.08;91.15;101367.16;2889845;82;21002;-69
2021/12/13 19:26:47;;;;;;;59.97;35.50;;;;;;;7.22;91.29;101366.45;2889785;82;21545;-69
2021/12/13 19:30:58;;;;;;;49.03;30.95;;;;;;;7.36;90.50;101364.91;2889220;82;21002;-70